createdAt,value
2023-02-27T00:01:33.262Z,0.75
2023-02-27T00:03:58.809Z,1.30
2023-02-27T00:06:24.354Z,1.25
2023-02-27T00:08:49.997Z,1.35
2023-02-27T00:11:15.569Z,0.95
2023-02-27T00:13:41.291Z,0.90
2023-02-27T00:21:08.315Z,0.80
2023-02-27T00:23:33.837Z,1.70
2023-02-27T00:25:59.358Z,2.10
2023-02-27T00:28:24.906Z,1.70
2023-02-27T00:30:50.485Z,1.13
2023-02-27T00:33:16.045Z,0.90
2023-02-27T00:35:41.712Z,1.30
2023-02-27T00:45:48.875Z,1.10
2023-02-27T00:48:14.412Z,1.00
2023-02-27T00:50:39.934Z,1.15
2023-02-27T00:53:05.428Z,1.92
2023-02-27T00:55:31.094Z,1.40
2023-02-27T00:57:56.645Z,1.20
2023-02-27T01:00:22.167Z,1.02
2023-02-27T01:02:47.964Z,1.00
2023-02-27T01:10:14.899Z,1.13
2023-02-27T01:12:40.379Z,0.88
2023-02-27T01:15:05.914Z,1.48
2023-02-27T01:17:31.478Z,1.02
2023-02-27T01:19:57.128Z,1.17
2023-02-27T01:22:22.625Z,0.88
2023-02-27T01:24:48.138Z,1.70
2023-02-27T01:27:13.944Z,1.23
2023-02-27T01:34:41.073Z,1.33
2023-02-27T01:37:06.580Z,0.80
2023-02-27T01:39:32.056Z,1.60
2023-02-27T01:41:57.552Z,0.98
2023-02-27T01:44:23.068Z,1.25
2023-02-27T01:46:48.610Z,1.75
2023-02-27T01:49:14.104Z,1.17
2023-02-27T01:51:39.576Z,1.10
2023-02-27T01:59:07.136Z,1.92
2023-02-27T02:01:32.713Z,2.15
2023-02-27T02:03:58.282Z,1.58
2023-02-27T02:06:23.829Z,1.27
2023-02-27T02:08:49.479Z,1.60
2023-02-27T02:11:14.998Z,1.92
2023-02-27T02:13:40.594Z,2.00
2023-02-27T02:16:06.427Z,2.05
2023-02-27T02:25:58.868Z,1.88
2023-02-27T02:28:24.380Z,1.80
2023-02-27T02:30:50.007Z,1.23
2023-02-27T02:33:15.569Z,1.10
2023-02-27T02:35:41.059Z,1.52
2023-02-27T02:38:06.590Z,1.27
2023-02-27T02:40:32.099Z,1.15
2023-02-27T02:42:57.968Z,1.33
2023-02-27T02:50:24.977Z,2.47
2023-02-27T02:52:50.466Z,1.77
2023-02-27T02:55:15.961Z,2.15
2023-02-27T02:57:41.460Z,1.98
2023-02-27T03:00:06.974Z,1.60
2023-02-27T03:02:32.487Z,0.90
2023-02-27T03:04:58.028Z,2.08
2023-02-27T03:07:23.803Z,1.85
2023-02-27T03:14:51.033Z,0.90
2023-02-27T03:17:16.513Z,0.90
2023-02-27T03:19:42.037Z,0.82
2023-02-27T03:22:07.690Z,1.38
2023-02-27T03:24:33.228Z,0.82
2023-02-27T03:26:58.717Z,1.30
2023-02-27T03:29:24.230Z,1.30
2023-02-27T03:31:49.920Z,1.15
2023-02-27T03:39:17.189Z,1.00
2023-02-27T03:41:42.744Z,1.05
2023-02-27T03:44:08.272Z,0.90
2023-02-27T03:46:33.807Z,0.52
2023-02-27T03:48:59.328Z,1.48
2023-02-27T03:51:25.057Z,0.93
2023-02-27T03:53:50.767Z,0.98
2023-02-27T03:56:16.257Z,1.48
2023-02-27T04:06:03.865Z,1.10
2023-02-27T04:08:29.359Z,0.82
2023-02-27T04:10:54.900Z,0.93
2023-02-27T04:13:20.555Z,1.27
2023-02-27T04:15:46.072Z,1.05
2023-02-27T04:18:11.589Z,0.88
2023-02-27T04:20:37.161Z,1.10
2023-02-27T04:23:02.645Z,1.25
2023-02-27T04:30:29.987Z,0.95
2023-02-27T04:32:55.564Z,1.08
2023-02-27T04:35:21.083Z,1.15
2023-02-27T04:37:46.616Z,1.25
2023-02-27T04:40:12.148Z,1.23
2023-02-27T04:42:37.719Z,1.25
2023-02-27T04:45:03.252Z,0.77
2023-02-27T04:47:29.126Z,0.75
2023-02-27T04:54:56.262Z,1.50
2023-02-27T04:57:21.876Z,1.90
2023-02-27T04:59:47.407Z,1.67
2023-02-27T05:02:13.139Z,0.90
2023-02-27T05:04:38.726Z,1.45
2023-02-27T05:07:04.202Z,1.15
2023-02-27T05:09:29.737Z,1.98
2023-02-27T05:14:32.761Z,1.65
2023-02-27T05:16:58.261Z,1.70
2023-02-27T05:19:23.780Z,2.10
2023-02-27T05:21:49.460Z,2.03
2023-02-27T05:24:14.987Z,1.70
2023-02-27T05:26:40.482Z,2.33
2023-02-27T05:29:06.027Z,1.58
2023-02-27T05:31:31.754Z,2.15
2023-02-27T05:38:58.854Z,1.38
2023-02-27T05:41:24.438Z,1.05
2023-02-27T05:43:49.996Z,1.20
2023-02-27T05:46:15.611Z,1.70
2023-02-27T05:48:41.259Z,2.00
2023-02-27T05:51:06.799Z,1.38
2023-02-27T05:53:32.301Z,1.65
2023-02-27T05:55:58.128Z,1.42
2023-02-27T06:03:25.038Z,1.58
2023-02-27T06:05:50.583Z,2.20
2023-02-27T06:08:16.124Z,2.08
2023-02-27T06:10:41.634Z,1.05
2023-02-27T06:13:07.122Z,1.05
2023-02-27T06:15:32.640Z,1.60
2023-02-27T06:17:58.214Z,1.23
2023-02-27T06:23:03.229Z,1.52
2023-02-27T06:25:28.771Z,1.33
2023-02-27T06:27:54.270Z,1.45
2023-02-27T06:30:19.785Z,1.35
2023-02-27T06:32:45.260Z,1.45
2023-02-27T06:35:10.822Z,1.83
2023-02-27T06:37:36.356Z,1.13
2023-02-27T06:40:02.220Z,1.88
2023-02-27T06:47:29.269Z,1.08
2023-02-27T06:49:54.766Z,2.05
2023-02-27T06:52:20.266Z,1.38
2023-02-27T06:54:45.742Z,9.57
2023-02-27T06:57:11.251Z,1.10
2023-02-27T06:59:36.773Z,1.95
2023-02-27T07:02:02.258Z,2.40
2023-02-27T07:04:28.024Z,1.58
2023-02-27T07:11:55.348Z,1.60
2023-02-27T07:14:20.841Z,1.70
2023-02-27T07:16:46.343Z,1.30
2023-02-27T07:19:11.858Z,1.48
2023-02-27T07:21:37.473Z,1.90
2023-02-27T07:24:02.988Z,1.67
2023-02-27T07:26:28.808Z,1.30
2023-02-27T07:31:36.833Z,1.73
2023-02-27T07:34:02.415Z,2.58
2023-02-27T07:36:28.241Z,1.45
2023-02-27T07:38:53.945Z,1.42
2023-02-27T07:41:29.903Z,1.67
2023-02-27T07:43:56.094Z,1.67
2023-02-27T07:46:21.658Z,1.70
2023-02-27T07:56:28.766Z,1.63
2023-02-27T07:58:54.438Z,1.15
2023-02-27T08:01:19.966Z,1.70
2023-02-27T08:03:45.450Z,2.55
2023-02-27T08:06:10.985Z,1.88
2023-02-27T08:08:36.516Z,1.50
2023-02-27T08:11:02.054Z,1.27
2023-02-27T08:21:04.706Z,1.50
2023-02-27T08:23:30.245Z,1.67
2023-02-27T08:25:55.798Z,1.48
2023-02-27T08:28:21.340Z,1.85
2023-02-27T08:30:46.845Z,1.98
2023-02-27T08:33:12.415Z,2.38
2023-02-27T08:35:38.081Z,1.90
2023-02-27T08:38:03.895Z,1.80
2023-02-27T08:45:30.869Z,2.70
2023-02-27T08:47:56.412Z,2.60
2023-02-27T08:50:22.014Z,2.63
2023-02-27T08:52:47.553Z,2.50
2023-02-27T08:55:13.101Z,2.08
2023-02-27T08:57:38.621Z,2.40
2023-02-27T09:00:04.193Z,2.10
2023-02-27T09:09:41.195Z,2.85
2023-02-27T09:12:06.764Z,1.55
2023-02-27T09:14:32.328Z,2.00
2023-02-27T09:16:57.925Z,1.60
2023-02-27T09:19:23.519Z,2.45
2023-02-27T09:21:49.067Z,2.47
2023-02-27T09:24:20.256Z,2.00
2023-02-27T09:34:27.952Z,1.50
2023-02-27T09:36:53.500Z,1.30
2023-02-27T09:39:19.060Z,1.73
2023-02-27T09:41:44.560Z,1.30
2023-02-27T09:44:10.040Z,1.50
2023-02-27T09:46:35.537Z,1.60
2023-02-27T09:49:01.152Z,1.55
2023-02-27T09:58:38.208Z,2.47
2023-02-27T10:01:03.740Z,2.50
2023-02-27T10:03:29.315Z,2.40
2023-02-27T10:05:54.974Z,2.65
2023-02-27T10:08:20.532Z,1.20
2023-02-27T10:10:46.024Z,2.28
2023-02-27T10:13:11.565Z,2.45
2023-02-27T10:15:37.105Z,2.63
2023-02-27T10:23:04.264Z,1.55
2023-02-27T10:25:31.981Z,1.23
2023-02-27T10:27:57.865Z,1.20
2023-02-27T10:30:29.240Z,1.10
2023-02-27T10:32:56.457Z,1.00
2023-02-27T10:35:22.101Z,0.98
2023-02-27T10:37:47.616Z,1.35
2023-02-27T10:43:30.506Z,1.08
2023-02-27T10:45:56.028Z,0.93
2023-02-27T10:48:21.614Z,1.00
2023-02-27T10:50:47.164Z,1.15
2023-02-27T10:53:12.663Z,1.15
2023-02-27T10:55:38.138Z,0.95
2023-02-27T10:58:03.714Z,0.90
2023-02-27T11:00:29.251Z,0.95
2023-02-27T11:07:56.576Z,1.27
2023-02-27T11:10:22.133Z,1.10
2023-02-27T11:12:47.622Z,1.38
2023-02-27T11:15:13.197Z,1.08
2023-02-27T11:17:38.694Z,1.00
2023-02-27T11:20:04.235Z,1.40
2023-02-27T11:22:29.771Z,1.08
2023-02-27T11:24:55.527Z,1.30
2023-02-27T11:32:22.722Z,0.95
2023-02-27T11:34:48.322Z,2.08
2023-02-27T11:37:13.840Z,1.77
2023-02-27T11:39:39.394Z,0.95
2023-02-27T11:42:04.952Z,1.25
2023-02-27T11:44:50.058Z,1.70
2023-02-27T11:47:16.058Z,1.02
2023-02-27T11:49:41.908Z,1.02
2023-02-27T11:57:09.614Z,1.83
2023-02-27T11:59:35.158Z,1.85
2023-02-27T12:02:00.697Z,1.67
2023-02-27T12:04:26.226Z,1.20
2023-02-27T12:06:51.720Z,1.90
2023-02-27T12:09:17.232Z,1.33
2023-02-27T12:11:42.716Z,1.52
2023-02-27T12:14:08.506Z,1.45
2023-02-27T12:21:35.690Z,1.00
2023-02-27T12:24:01.252Z,0.98
2023-02-27T12:26:27.087Z,0.95
2023-02-27T12:28:52.794Z,1.65
2023-02-27T12:31:18.499Z,0.90
2023-02-27T12:33:44.071Z,0.85
2023-02-27T12:36:09.593Z,2.03
2023-02-27T12:38:35.416Z,1.33
2023-02-27T12:45:58.398Z,1.00
2023-02-27T12:48:24.006Z,1.10
2023-02-27T12:50:49.594Z,1.13
2023-02-27T12:53:15.141Z,0.90
2023-02-27T12:55:40.636Z,0.50
2023-02-27T12:58:06.153Z,0.73
2023-02-27T13:00:31.663Z,0.47
2023-02-27T13:02:57.410Z,0.75
2023-02-27T13:10:24.383Z,1.35
2023-02-27T13:12:49.946Z,1.77
2023-02-27T13:15:15.453Z,1.80
2023-02-27T13:17:40.975Z,1.45
2023-02-27T13:20:06.528Z,1.77
2023-02-27T13:22:32.063Z,1.30
2023-02-27T13:24:57.571Z,1.42
2023-02-27T13:27:23.115Z,1.45
2023-02-27T13:37:10.834Z,0.50
2023-02-27T13:39:36.400Z,0.65
2023-02-27T13:42:02.043Z,0.50
2023-02-27T13:44:27.631Z,0.60
2023-02-27T13:46:53.259Z,0.77
2023-02-27T13:49:28.849Z,0.47
2023-02-27T13:51:54.992Z,0.65
2023-02-27T13:54:20.654Z,0.55
2023-02-27T14:01:48.110Z,0.80
2023-02-27T14:04:13.665Z,0.73
2023-02-27T14:06:39.337Z,0.63
2023-02-27T14:09:14.865Z,1.05
2023-02-27T14:11:41.021Z,0.70
2023-02-27T14:14:06.638Z,1.02
2023-02-27T14:16:32.164Z,0.82
2023-02-27T14:26:14.289Z,0.50
2023-02-27T14:28:39.814Z,0.60
2023-02-27T14:31:05.340Z,0.50
2023-02-27T14:33:40.174Z,0.60
2023-02-27T14:36:06.270Z,0.50
2023-02-27T14:38:31.755Z,0.82
2023-02-27T14:40:57.250Z,0.60
2023-02-27T14:43:23.036Z,0.40
2023-02-27T14:53:10.900Z,0.60
2023-02-27T14:55:36.383Z,0.55
2023-02-27T14:58:01.949Z,0.40
2023-02-27T15:00:27.545Z,0.43
2023-02-27T15:02:53.221Z,0.70
2023-02-27T15:05:18.774Z,0.60
2023-02-27T15:07:44.301Z,0.60
2023-02-27T15:10:10.100Z,0.50
2023-02-27T15:17:36.996Z,1.23
2023-02-27T15:20:02.532Z,0.98
2023-02-27T15:22:38.142Z,1.15
2023-02-27T15:25:04.321Z,1.17
2023-02-27T15:27:29.807Z,1.27
2023-02-27T15:29:55.392Z,1.02
2023-02-27T15:32:21.019Z,0.63
2023-02-27T15:42:28.680Z,1.23
2023-02-27T15:44:54.238Z,1.45
2023-02-27T15:47:19.738Z,1.40
2023-02-27T15:49:45.290Z,1.00
2023-02-27T15:52:10.855Z,1.10
2023-02-27T15:54:36.343Z,0.85
2023-02-27T15:57:01.834Z,1.63
2023-02-27T15:59:27.468Z,1.13
2023-02-27T16:06:18.206Z,0.75
2023-02-27T16:08:43.800Z,0.63
2023-02-27T16:11:09.281Z,0.82
2023-02-27T16:13:34.878Z,0.85
2023-02-27T16:16:00.560Z,0.73
2023-02-27T16:18:26.117Z,0.98
2023-02-27T16:20:51.625Z,1.02
2023-02-27T16:23:17.411Z,0.82
2023-02-27T16:30:44.221Z,1.30
2023-02-27T16:33:09.698Z,1.70
2023-02-27T16:35:35.281Z,1.80
2023-02-27T16:38:00.924Z,1.77
2023-02-27T16:40:26.586Z,2.03
2023-02-27T16:42:52.173Z,1.83
2023-02-27T16:45:17.815Z,1.42
2023-02-27T16:55:24.734Z,1.33
2023-02-27T16:57:50.315Z,1.50
2023-02-27T17:00:15.825Z,0.98
2023-02-27T17:02:41.937Z,1.35
2023-02-27T17:05:07.491Z,0.88
2023-02-27T17:07:32.974Z,1.45
2023-02-27T17:09:58.546Z,1.20
2023-02-27T17:12:24.161Z,1.42
2023-02-27T17:19:50.910Z,1.52
2023-02-27T17:22:16.411Z,1.10
2023-02-27T17:24:41.931Z,1.27
2023-02-27T17:27:07.495Z,1.58
2023-02-27T17:29:33.039Z,1.40
2023-02-27T17:31:58.625Z,1.23
2023-02-27T17:34:24.225Z,1.30
2023-02-27T17:36:49.719Z,1.27
2023-02-27T17:44:16.959Z,1.23
2023-02-27T17:46:42.499Z,1.75
2023-02-27T17:49:08.043Z,1.27
2023-02-27T17:51:33.542Z,1.30
2023-02-27T17:53:59.075Z,1.13
2023-02-27T17:56:24.558Z,1.02
2023-02-27T17:58:50.040Z,0.75
2023-02-27T18:03:58.376Z,1.73
2023-02-27T18:06:23.933Z,1.17
2023-02-27T18:08:49.434Z,1.20
2023-02-27T18:11:14.940Z,1.30
2023-02-27T18:13:40.449Z,1.63
2023-02-27T18:16:06.001Z,1.15
2023-02-27T18:18:31.559Z,2.03
2023-02-27T18:28:38.877Z,1.63
2023-02-27T18:31:04.431Z,1.75
2023-02-27T18:33:29.979Z,1.38
2023-02-27T18:35:55.558Z,1.92
2023-02-27T18:38:21.161Z,2.42
2023-02-27T18:40:46.707Z,1.90
2023-02-27T18:43:12.240Z,2.05
2023-02-27T18:48:20.280Z,3.58
2023-02-27T18:50:45.831Z,2.72
2023-02-27T18:53:11.414Z,2.47
2023-02-27T18:55:36.895Z,2.05
2023-02-27T18:58:02.442Z,1.05
2023-02-27T19:00:27.997Z,2.45
2023-02-27T19:02:53.635Z,2.35
2023-02-27T19:08:01.825Z,2.13
2023-02-27T19:10:27.436Z,1.67
2023-02-27T19:12:52.997Z,1.73
2023-02-27T19:15:18.518Z,1.73
2023-02-27T19:17:44.056Z,1.75
2023-02-27T19:20:09.559Z,2.15
2023-02-27T19:22:35.125Z,2.53
2023-02-27T19:32:37.756Z,3.45
2023-02-27T19:35:03.289Z,2.50
2023-02-27T19:37:28.899Z,2.20
2023-02-27T19:39:54.431Z,2.58
2023-02-27T19:42:19.917Z,2.10
2023-02-27T19:44:45.461Z,2.65
2023-02-27T19:47:11.186Z,2.92
2023-02-27T19:49:36.806Z,2.80
2023-02-27T19:56:49.752Z,2.38
2023-02-27T19:59:15.228Z,4.50
2023-02-27T20:01:40.714Z,2.35
2023-02-27T20:04:06.302Z,2.13
2023-02-27T20:06:32.157Z,1.67
2023-02-27T20:08:58.026Z,2.22
2023-02-27T20:11:23.831Z,2.22
2023-02-27T20:16:59.919Z,2.38
2023-02-27T20:19:25.507Z,3.13
2023-02-27T20:21:51.097Z,3.53
2023-02-27T20:24:16.653Z,2.90
2023-02-27T20:26:42.247Z,2.97
2023-02-27T20:29:07.881Z,3.38
2023-02-27T20:31:33.504Z,3.08
2023-02-27T20:33:59.288Z,4.60
2023-02-27T20:41:29.020Z,3.38
2023-02-27T20:43:54.922Z,3.33
2023-02-27T20:46:20.463Z,3.80
2023-02-27T20:48:46.079Z,3.75
2023-02-27T20:51:11.609Z,3.80
2023-02-27T20:53:37.153Z,3.35
2023-02-27T20:56:02.677Z,3.92
2023-02-27T20:58:28.169Z,4.07
2023-02-27T21:05:55.252Z,3.75
2023-02-27T21:08:20.794Z,3.63
2023-02-27T21:10:46.327Z,3.70
2023-02-27T21:13:11.947Z,4.10
2023-02-27T21:15:37.524Z,4.40
2023-02-27T21:18:03.032Z,3.97
2023-02-27T21:20:28.526Z,5.22
2023-02-27T21:26:35.889Z,3.90
2023-02-27T21:29:01.414Z,4.60
2023-02-27T21:31:27.234Z,4.93
2023-02-27T21:33:52.874Z,3.70
2023-02-27T21:36:18.347Z,5.50
2023-02-27T21:38:43.880Z,5.00
2023-02-27T21:41:11.567Z,4.97
2023-02-27T21:51:14.398Z,6.03
2023-02-27T21:53:39.897Z,6.07
2023-02-27T21:56:05.456Z,6.68
2023-02-27T21:58:31.018Z,6.13
2023-02-27T22:00:56.555Z,6.60
2023-02-27T22:03:22.100Z,6.28
2023-02-27T22:05:47.575Z,5.88
2023-02-27T22:15:24.734Z,4.90
2023-02-27T22:17:50.246Z,4.90
2023-02-27T22:20:15.802Z,5.25
2023-02-27T22:22:41.354Z,5.47
2023-02-27T22:25:06.875Z,5.65
2023-02-27T22:27:32.400Z,5.82
2023-02-27T22:29:57.904Z,6.18
2023-02-27T22:32:23.471Z,5.93
2023-02-27T22:39:50.729Z,7.95
2023-02-27T22:42:16.292Z,7.13
2023-02-27T22:44:41.797Z,5.55
2023-02-27T22:47:07.266Z,7.00
2023-02-27T22:49:32.786Z,6.63
2023-02-27T22:51:58.296Z,6.72
2023-02-27T22:54:23.797Z,7.18
2023-02-27T22:59:32.226Z,6.80
2023-02-27T23:01:57.813Z,6.68
2023-02-27T23:04:23.336Z,7.20
2023-02-27T23:06:50.420Z,6.05
2023-02-27T23:09:17.042Z,7.10
2023-02-27T23:11:42.531Z,6.82
2023-02-27T23:14:08.020Z,6.90
2023-02-27T23:16:33.807Z,6.10
2023-02-27T23:24:01.449Z,5.95
2023-02-27T23:26:26.951Z,5.85
2023-02-27T23:28:52.457Z,5.65
2023-02-27T23:31:18.014Z,5.47
2023-02-27T23:33:43.543Z,5.05
2023-02-27T23:36:09.091Z,4.55
2023-02-27T23:38:34.639Z,4.78
2023-02-27T23:41:00.214Z,5.13
2023-02-27T23:48:27.518Z,4.40
2023-02-27T23:50:52.996Z,4.03
2023-02-27T23:53:18.512Z,4.55
2023-02-27T23:55:44.015Z,4.10
2023-02-27T23:58:09.536Z,3.67
